sensor_id;sensor_type;location;lat;lon;timestamp;P1;durP1;ratioP1;P2;durP2;ratioP2
51148;SDS011;37210;50.058;8.688;2023-02-28T00:01:32;3.50;;;3.20;;
51148;SDS011;37210;50.058;8.688;2023-02-28T00:04:00;3.17;;;2.85;;
51148;SDS011;37210;50.058;8.688;2023-02-28T00:06:28;11.20;;;10.02;;
51148;SDS011;37210;50.058;8.688;2023-02-28T00:08:56;9.68;;;8.35;;
51148;SDS011;37210;50.058;8.688;2023-02-28T00:11:25;6.03;;;5.50;;
51148;SDS011;37210;50.058;8.688;2023-02-28T00:13:53;3.30;;;3.10;;
51148;SDS011;37210;50.058;8.688;2023-02-28T00:16:22;10.77;;;8.95;;
51148;SDS011;37210;50.058;8.688;2023-02-28T00:18:50;15.77;;;12.00;;
51148;SDS011;37210;50.058;8.688;2023-02-28T00:21:19;4.72;;;4.32;;
51148;SDS011;37210;50.058;8.688;2023-02-28T00:23:47;4.47;;;4.00;;
51148;SDS011;37210;50.058;8.688;2023-02-28T00:26:15;3.40;;;3.08;;
51148;SDS011;37210;50.058;8.688;2023-02-28T00:28:46;3.75;;;3.45;;
51148;SDS011;37210;50.058;8.688;2023-02-28T00:31:14;3.80;;;3.45;;
51148;SDS011;37210;50.058;8.688;2023-02-28T00:33:42;3.47;;;3.20;;
51148;SDS011;37210;50.058;8.688;2023-02-28T00:36:10;3.83;;;3.53;;
51148;SDS011;37210;50.058;8.688;2023-02-28T00:38:39;3.90;;;3.50;;
51148;SDS011;37210;50.058;8.688;2023-02-28T00:41:08;3.97;;;3.67;;
51148;SDS011;37210;50.058;8.688;2023-02-28T00:43:38;3.67;;;3.38;;
51148;SDS011;37210;50.058;8.688;2023-02-28T00:46:08;3.40;;;3.17;;
51148;SDS011;37210;50.058;8.688;2023-02-28T00:48:36;3.88;;;3.58;;
51148;SDS011;37210;50.058;8.688;2023-02-28T00:51:04;3.63;;;3.33;;
51148;SDS011;37210;50.058;8.688;2023-02-28T00:53:32;3.25;;;3.00;;
51148;SDS011;37210;50.058;8.688;2023-02-28T00:56:00;3.67;;;3.38;;
51148;SDS011;37210;50.058;8.688;2023-02-28T00:58:29;3.42;;;3.15;;
51148;SDS011;37210;50.058;8.688;2023-02-28T01:00:58;3.80;;;3.50;;
51148;SDS011;37210;50.058;8.688;2023-02-28T01:03:28;4.47;;;3.90;;
51148;SDS011;37210;50.058;8.688;2023-02-28T01:05:56;3.80;;;3.50;;
51148;SDS011;37210;50.058;8.688;2023-02-28T01:08:24;3.72;;;3.53;;
51148;SDS011;37210;50.058;8.688;2023-02-28T01:10:53;4.20;;;3.90;;
51148;SDS011;37210;50.058;8.688;2023-02-28T01:13:21;3.90;;;3.60;;
51148;SDS011;37210;50.058;8.688;2023-02-28T01:15:52;4.30;;;3.90;;
51148;SDS011;37210;50.058;8.688;2023-02-28T01:18:22;4.03;;;3.72;;
51148;SDS011;37210;50.058;8.688;2023-02-28T01:20:52;4.18;;;3.78;;
51148;SDS011;37210;50.058;8.688;2023-02-28T01:23:20;4.43;;;3.97;;
51148;SDS011;37210;50.058;8.688;2023-02-28T01:25:49;4.38;;;3.83;;
51148;SDS011;37210;50.058;8.688;2023-02-28T01:28:18;4.55;;;4.25;;
51148;SDS011;37210;50.058;8.688;2023-02-28T01:30:47;4.20;;;3.90;;
51148;SDS011;37210;50.058;8.688;2023-02-28T01:33:16;4.18;;;3.88;;
51148;SDS011;37210;50.058;8.688;2023-02-28T01:35:44;4.53;;;4.13;;
51148;SDS011;37210;50.058;8.688;2023-02-28T01:38:13;4.43;;;4.03;;
51148;SDS011;37210;50.058;8.688;2023-02-28T01:40:40;4.40;;;4.10;;
51148;SDS011;37210;50.058;8.688;2023-02-28T01:43:11;4.80;;;4.40;;
51148;SDS011;37210;50.058;8.688;2023-02-28T01:45:48;4.63;;;4.32;;
51148;SDS011;37210;50.058;8.688;2023-02-28T01:48:16;4.90;;;4.47;;
51148;SDS011;37210;50.058;8.688;2023-02-28T01:50:45;4.25;;;3.95;;
51148;SDS011;37210;50.058;8.688;2023-02-28T01:53:18;4.70;;;4.30;;
51148;SDS011;37210;50.058;8.688;2023-02-28T01:55:57;4.45;;;4.15;;
51148;SDS011;37210;50.058;8.688;2023-02-28T01:58:25;4.38;;;3.97;;
51148;SDS011;37210;50.058;8.688;2023-02-28T02:00:53;4.60;;;4.30;;
51148;SDS011;37210;50.058;8.688;2023-02-28T02:03:21;4.03;;;3.72;;
51148;SDS011;37210;50.058;8.688;2023-02-28T02:05:49;4.50;;;4.20;;
51148;SDS011;37210;50.058;8.688;2023-02-28T02:08:18;4.55;;;4.22;;
51148;SDS011;37210;50.058;8.688;2023-02-28T02:10:50;4.25;;;3.95;;
51148;SDS011;37210;50.058;8.688;2023-02-28T02:13:28;4.55;;;4.25;;
51148;SDS011;37210;50.058;8.688;2023-02-28T02:16:17;5.97;;;4.30;;
51148;SDS011;37210;50.058;8.688;2023-02-28T02:19:06;4.57;;;4.18;;
51148;SDS011;37210;50.058;8.688;2023-02-28T02:22:03;4.28;;;3.97;;
51148;SDS011;37210;50.058;8.688;2023-02-28T02:25:09;4.75;;;4.35;;
51148;SDS011;37210;50.058;8.688;2023-02-28T02:28:13;4.80;;;4.40;;
51148;SDS011;37210;50.058;8.688;2023-02-28T02:34:28;4.75;;;4.45;;
51148;SDS011;37210;50.058;8.688;2023-02-28T02:37:23;5.20;;;4.80;;
51148;SDS011;37210;50.058;8.688;2023-02-28T02:40:00;4.22;;;3.85;;
51148;SDS011;37210;50.058;8.688;2023-02-28T02:42:39;4.70;;;4.40;;
51148;SDS011;37210;50.058;8.688;2023-02-28T02:45:17;5.40;;;4.90;;
51148;SDS011;37210;50.058;8.688;2023-02-28T02:47:53;4.63;;;4.20;;
51148;SDS011;37210;50.058;8.688;2023-02-28T02:50:29;4.20;;;3.90;;
51148;SDS011;37210;50.058;8.688;2023-02-28T02:53:04;4.40;;;4.07;;
51148;SDS011;37210;50.058;8.688;2023-02-28T02:55:39;4.78;;;4.32;;
51148;SDS011;37210;50.058;8.688;2023-02-28T02:58:14;4.53;;;4.13;;
51148;SDS011;37210;50.058;8.688;2023-02-28T03:00:48;4.50;;;4.10;;
51148;SDS011;37210;50.058;8.688;2023-02-28T03:03:20;4.85;;;4.45;;
51148;SDS011;37210;50.058;8.688;2023-02-28T03:05:57;4.05;;;3.75;;
51148;SDS011;37210;50.058;8.688;2023-02-28T03:08:28;4.25;;;3.95;;
51148;SDS011;37210;50.058;8.688;2023-02-28T03:11:02;4.07;;;3.78;;
51148;SDS011;37210;50.058;8.688;2023-02-28T03:13:51;4.53;;;4.13;;
51148;SDS011;37210;50.058;8.688;2023-02-28T03:16:33;4.10;;;3.80;;
51148;SDS011;37210;50.058;8.688;2023-02-28T03:19:17;5.13;;;4.03;;
51148;SDS011;37210;50.058;8.688;2023-02-28T03:22:06;4.57;;;4.25;;
51148;SDS011;37210;50.058;8.688;2023-02-28T03:24:45;4.57;;;4.18;;
51148;SDS011;37210;50.058;8.688;2023-02-28T03:27:25;4.20;;;3.90;;
51148;SDS011;37210;50.058;8.688;2023-02-28T03:30:03;4.53;;;4.18;;
51148;SDS011;37210;50.058;8.688;2023-02-28T03:32:36;4.70;;;4.40;;
51148;SDS011;37210;50.058;8.688;2023-02-28T03:35:16;3.97;;;3.67;;
51148;SDS011;37210;50.058;8.688;2023-02-28T03:37:52;4.50;;;4.10;;
51148;SDS011;37210;50.058;8.688;2023-02-28T03:40:27;4.60;;;4.30;;
51148;SDS011;37210;50.058;8.688;2023-02-28T03:43:03;4.30;;;4.00;;
51148;SDS011;37210;50.058;8.688;2023-02-28T03:45:39;4.00;;;3.67;;
51148;SDS011;37210;50.058;8.688;2023-02-28T03:48:11;4.00;;;3.70;;
51148;SDS011;37210;50.058;8.688;2023-02-28T03:50:47;4.35;;;3.95;;
51148;SDS011;37210;50.058;8.688;2023-02-28T03:53:26;4.15;;;3.72;;
51148;SDS011;37210;50.058;8.688;2023-02-28T03:56:00;3.97;;;3.65;;
51148;SDS011;37210;50.058;8.688;2023-02-28T03:58:36;3.97;;;3.65;;
51148;SDS011;37210;50.058;8.688;2023-02-28T04:01:15;4.57;;;3.67;;
51148;SDS011;37210;50.058;8.688;2023-02-28T04:03:49;4.13;;;3.83;;
51148;SDS011;37210;50.058;8.688;2023-02-28T04:06:17;4.05;;;3.75;;
51148;SDS011;37210;50.058;8.688;2023-02-28T04:08:49;4.07;;;3.70;;
51148;SDS011;37210;50.058;8.688;2023-02-28T04:11:22;3.85;;;3.55;;
51148;SDS011;37210;50.058;8.688;2023-02-28T04:13:54;3.67;;;3.42;;
51148;SDS011;37210;50.058;8.688;2023-02-28T04:16:22;3.97;;;3.72;;
51148;SDS011;37210;50.058;8.688;2023-02-28T04:18:50;3.58;;;3.30;;
51148;SDS011;37210;50.058;8.688;2023-02-28T04:21:17;4.25;;;3.92;;
51148;SDS011;37210;50.058;8.688;2023-02-28T04:23:47;4.20;;;3.90;;
51148;SDS011;37210;50.058;8.688;2023-02-28T04:26:16;4.07;;;3.67;;
51148;SDS011;37210;50.058;8.688;2023-02-28T04:28:44;3.97;;;3.67;;
51148;SDS011;37210;50.058;8.688;2023-02-28T04:31:11;4.18;;;3.88;;
51148;SDS011;37210;50.058;8.688;2023-02-28T04:33:38;3.60;;;3.30;;
51148;SDS011;37210;50.058;8.688;2023-02-28T04:36:07;3.88;;;3.58;;
51148;SDS011;37210;50.058;8.688;2023-02-28T04:38:36;4.03;;;3.72;;
51148;SDS011;37210;50.058;8.688;2023-02-28T04:41:07;5.32;;;4.82;;
51148;SDS011;37210;50.058;8.688;2023-02-28T04:43:34;4.18;;;3.65;;
51148;SDS011;37210;50.058;8.688;2023-02-28T04:46:03;3.60;;;3.35;;
51148;SDS011;37210;50.058;8.688;2023-02-28T04:48:32;3.88;;;3.65;;
51148;SDS011;37210;50.058;8.688;2023-02-28T04:51:02;3.58;;;3.28;;
51148;SDS011;37210;50.058;8.688;2023-02-28T04:53:31;4.43;;;3.88;;
51148;SDS011;37210;50.058;8.688;2023-02-28T04:56:00;4.00;;;3.70;;
51148;SDS011;37210;50.058;8.688;2023-02-28T04:58:29;3.45;;;3.10;;
51148;SDS011;37210;50.058;8.688;2023-02-28T05:01:01;3.78;;;3.47;;
51148;SDS011;37210;50.058;8.688;2023-02-28T05:03:38;3.70;;;3.45;;
51148;SDS011;37210;50.058;8.688;2023-02-28T05:06:07;3.97;;;3.65;;
51148;SDS011;37210;50.058;8.688;2023-02-28T05:08:35;3.70;;;3.40;;
51148;SDS011;37210;50.058;8.688;2023-02-28T05:11:03;3.70;;;3.40;;
51148;SDS011;37210;50.058;8.688;2023-02-28T05:13:34;3.90;;;3.60;;
51148;SDS011;37210;50.058;8.688;2023-02-28T05:16:01;4.15;;;3.63;;
51148;SDS011;37210;50.058;8.688;2023-02-28T05:18:29;3.90;;;3.60;;
51148;SDS011;37210;50.058;8.688;2023-02-28T05:20:56;4.20;;;3.80;;
51148;SDS011;37210;50.058;8.688;2023-02-28T05:23:24;3.90;;;3.53;;
51148;SDS011;37210;50.058;8.688;2023-02-28T05:25:51;4.03;;;3.63;;
51148;SDS011;37210;50.058;8.688;2023-02-28T05:28:19;3.42;;;3.15;;
51148;SDS011;37210;50.058;8.688;2023-02-28T05:30:48;3.83;;;3.53;;
51148;SDS011;37210;50.058;8.688;2023-02-28T05:33:16;3.75;;;3.33;;
51148;SDS011;37210;50.058;8.688;2023-02-28T05:35:43;3.67;;;3.35;;
51148;SDS011;37210;50.058;8.688;2023-02-28T05:38:11;3.13;;;2.92;;
51148;SDS011;37210;50.058;8.688;2023-02-28T05:40:38;3.70;;;3.40;;
51148;SDS011;37210;50.058;8.688;2023-02-28T05:43:08;3.40;;;3.10;;
51148;SDS011;37210;50.058;8.688;2023-02-28T05:45:38;4.07;;;3.72;;
51148;SDS011;37210;50.058;8.688;2023-02-28T05:48:07;3.92;;;3.50;;
51148;SDS011;37210;50.058;8.688;2023-02-28T05:50:35;3.85;;;3.47;;
51148;SDS011;37210;50.058;8.688;2023-02-28T05:53:02;3.28;;;3.00;;
51148;SDS011;37210;50.058;8.688;2023-02-28T05:55:30;4.00;;;3.70;;
51148;SDS011;37210;50.058;8.688;2023-02-28T05:57:58;4.35;;;4.05;;
51148;SDS011;37210;50.058;8.688;2023-02-28T06:00:25;4.18;;;3.78;;
51148;SDS011;37210;50.058;8.688;2023-02-28T06:02:53;3.90;;;3.60;;
51148;SDS011;37210;50.058;8.688;2023-02-28T06:05:25;3.60;;;3.30;;
51148;SDS011;37210;50.058;8.688;2023-02-28T06:07:53;4.30;;;3.90;;
51148;SDS011;37210;50.058;8.688;2023-02-28T06:10:23;3.70;;;3.47;;
51148;SDS011;37210;50.058;8.688;2023-02-28T06:12:50;3.88;;;3.58;;
51148;SDS011;37210;50.058;8.688;2023-02-28T06:15:18;3.85;;;3.55;;
51148;SDS011;37210;50.058;8.688;2023-02-28T06:17:46;3.63;;;3.33;;
51148;SDS011;37210;50.058;8.688;2023-02-28T06:20:13;3.50;;;3.20;;
51148;SDS011;37210;50.058;8.688;2023-02-28T06:22:45;5.13;;;3.13;;
51148;SDS011;37210;50.058;8.688;2023-02-28T06:25:13;4.15;;;3.50;;
51148;SDS011;37210;50.058;8.688;2023-02-28T06:27:41;3.75;;;3.45;;
51148;SDS011;37210;50.058;8.688;2023-02-28T06:30:09;3.88;;;3.58;;
51148;SDS011;37210;50.058;8.688;2023-02-28T06:32:38;3.78;;;3.30;;
51148;SDS011;37210;50.058;8.688;2023-02-28T06:35:06;4.15;;;3.78;;
51148;SDS011;37210;50.058;8.688;2023-02-28T06:37:34;3.90;;;3.50;;
51148;SDS011;37210;50.058;8.688;2023-02-28T06:40:08;3.58;;;3.28;;
51148;SDS011;37210;50.058;8.688;2023-02-28T06:42:39;3.90;;;3.60;;
51148;SDS011;37210;50.058;8.688;2023-02-28T06:45:08;4.00;;;3.25;;
51148;SDS011;37210;50.058;8.688;2023-02-28T06:47:37;4.03;;;3.63;;
51148;SDS011;37210;50.058;8.688;2023-02-28T06:50:07;3.70;;;3.40;;
51148;SDS011;37210;50.058;8.688;2023-02-28T06:52:38;3.70;;;3.40;;
51148;SDS011;37210;50.058;8.688;2023-02-28T06:55:08;3.13;;;2.92;;
51148;SDS011;37210;50.058;8.688;2023-02-28T06:57:36;3.70;;;3.40;;
51148;SDS011;37210;50.058;8.688;2023-02-28T07:00:05;4.10;;;3.75;;
51148;SDS011;37210;50.058;8.688;2023-02-28T07:02:36;3.70;;;3.40;;
51148;SDS011;37210;50.058;8.688;2023-02-28T07:05:04;4.18;;;3.80;;
51148;SDS011;37210;50.058;8.688;2023-02-28T07:07:33;3.78;;;3.47;;
51148;SDS011;37210;50.058;8.688;2023-02-28T07:10:02;3.53;;;3.22;;
51148;SDS011;37210;50.058;8.688;2023-02-28T07:12:31;3.80;;;3.50;;
51148;SDS011;37210;50.058;8.688;2023-02-28T07:14:59;3.97;;;3.42;;
51148;SDS011;37210;50.058;8.688;2023-02-28T07:17:26;3.83;;;3.53;;
51148;SDS011;37210;50.058;8.688;2023-02-28T07:19:54;4.00;;;3.65;;
51148;SDS011;37210;50.058;8.688;2023-02-28T07:22:21;3.63;;;3.30;;
51148;SDS011;37210;50.058;8.688;2023-02-28T07:24:50;4.05;;;3.65;;
51148;SDS011;37210;50.058;8.688;2023-02-28T07:27:18;4.25;;;3.85;;
51148;SDS011;37210;50.058;8.688;2023-02-28T07:29:52;4.13;;;3.83;;
51148;SDS011;37210;50.058;8.688;2023-02-28T07:32:21;4.18;;;3.85;;
51148;SDS011;37210;50.058;8.688;2023-02-28T07:34:50;3.42;;;3.13;;
51148;SDS011;37210;50.058;8.688;2023-02-28T07:37:17;4.40;;;4.00;;
51148;SDS011;37210;50.058;8.688;2023-02-28T07:39:45;3.80;;;3.40;;
51148;SDS011;37210;50.058;8.688;2023-02-28T07:42:13;4.10;;;3.70;;
51148;SDS011;37210;50.058;8.688;2023-02-28T07:44:41;4.53;;;4.15;;
51148;SDS011;37210;50.058;8.688;2023-02-28T07:47:10;5.20;;;4.70;;
51148;SDS011;37210;50.058;8.688;2023-02-28T07:49:38;4.47;;;3.88;;
51148;SDS011;37210;50.058;8.688;2023-02-28T07:52:06;4.55;;;4.15;;
51148;SDS011;37210;50.058;8.688;2023-02-28T07:54:34;4.72;;;4.32;;
51148;SDS011;37210;50.058;8.688;2023-02-28T07:57:02;4.45;;;3.92;;
51148;SDS011;37210;50.058;8.688;2023-02-28T07:59:30;4.82;;;4.22;;
51148;SDS011;37210;50.058;8.688;2023-02-28T08:01:57;4.05;;;3.75;;
51148;SDS011;37210;50.058;8.688;2023-02-28T08:04:27;4.90;;;4.50;;
51148;SDS011;37210;50.058;8.688;2023-02-28T08:06:54;4.40;;;4.00;;
51148;SDS011;37210;50.058;8.688;2023-02-28T08:09:22;5.30;;;4.15;;
51148;SDS011;37210;50.058;8.688;2023-02-28T08:11:50;4.18;;;3.65;;
51148;SDS011;37210;50.058;8.688;2023-02-28T08:14:18;4.28;;;3.85;;
51148;SDS011;37210;50.058;8.688;2023-02-28T08:16:46;5.20;;;4.70;;
51148;SDS011;37210;50.058;8.688;2023-02-28T08:19:13;4.45;;;4.05;;
51148;SDS011;37210;50.058;8.688;2023-02-28T08:21:43;4.35;;;4.05;;
51148;SDS011;37210;50.058;8.688;2023-02-28T08:24:10;4.07;;;3.78;;
51148;SDS011;37210;50.058;8.688;2023-02-28T08:26:38;4.38;;;3.97;;
51148;SDS011;37210;50.058;8.688;2023-02-28T08:29:06;3.65;;;3.25;;
51148;SDS011;37210;50.058;8.688;2023-02-28T08:31:34;4.13;;;3.83;;
51148;SDS011;37210;50.058;8.688;2023-02-28T08:34:04;4.38;;;3.97;;
51148;SDS011;37210;50.058;8.688;2023-02-28T08:36:33;4.05;;;3.75;;
51148;SDS011;37210;50.058;8.688;2023-02-28T08:39:03;4.65;;;4.15;;
51148;SDS011;37210;50.058;8.688;2023-02-28T08:41:31;3.90;;;3.53;;
51148;SDS011;37210;50.058;8.688;2023-02-28T08:44:00;4.68;;;3.67;;
51148;SDS011;37210;50.058;8.688;2023-02-28T08:46:28;4.18;;;3.88;;
51148;SDS011;37210;50.058;8.688;2023-02-28T08:48:56;4.10;;;3.80;;
51148;SDS011;37210;50.058;8.688;2023-02-28T08:51:26;4.72;;;4.28;;
51148;SDS011;37210;50.058;8.688;2023-02-28T08:53:55;4.18;;;3.78;;
51148;SDS011;37210;50.058;8.688;2023-02-28T08:56:27;4.60;;;4.07;;
51148;SDS011;37210;50.058;8.688;2023-02-28T08:58:56;4.15;;;3.75;;
51148;SDS011;37210;50.058;8.688;2023-02-28T09:01:25;5.85;;;5.28;;
51148;SDS011;37210;50.058;8.688;2023-02-28T09:03:55;6.72;;;5.57;;
51148;SDS011;37210;50.058;8.688;2023-02-28T09:06:24;5.35;;;4.57;;
51148;SDS011;37210;50.058;8.688;2023-02-28T09:08:55;5.75;;;4.45;;
51148;SDS011;37210;50.058;8.688;2023-02-28T09:11:25;4.90;;;4.45;;
51148;SDS011;37210;50.058;8.688;2023-02-28T09:13:54;4.50;;;4.18;;
51148;SDS011;37210;50.058;8.688;2023-02-28T09:16:22;4.13;;;3.83;;
51148;SDS011;37210;50.058;8.688;2023-02-28T09:18:50;4.40;;;4.00;;
51148;SDS011;37210;50.058;8.688;2023-02-28T09:21:18;4.75;;;4.35;;
51148;SDS011;37210;50.058;8.688;2023-02-28T09:23:47;4.18;;;3.72;;
51148;SDS011;37210;50.058;8.688;2023-02-28T09:26:18;3.92;;;3.63;;
51148;SDS011;37210;50.058;8.688;2023-02-28T09:28:51;4.20;;;3.88;;
51148;SDS011;37210;50.058;8.688;2023-02-28T09:31:20;4.32;;;3.92;;
51148;SDS011;37210;50.058;8.688;2023-02-28T09:33:51;4.85;;;4.10;;
51148;SDS011;37210;50.058;8.688;2023-02-28T09:36:21;5.03;;;4.45;;
51148;SDS011;37210;50.058;8.688;2023-02-28T09:38:51;4.93;;;4.53;;
51148;SDS011;37210;50.058;8.688;2023-02-28T09:41:20;4.82;;;4.43;;
51148;SDS011;37210;50.058;8.688;2023-02-28T09:43:56;4.63;;;4.20;;
51148;SDS011;37210;50.058;8.688;2023-02-28T09:46:30;4.65;;;4.18;;
51148;SDS011;37210;50.058;8.688;2023-02-28T09:49:06;4.63;;;4.22;;
51148;SDS011;37210;50.058;8.688;2023-02-28T09:51:44;5.93;;;4.63;;
51148;SDS011;37210;50.058;8.688;2023-02-28T09:54:20;4.78;;;4.32;;
51148;SDS011;37210;50.058;8.688;2023-02-28T09:56:52;4.80;;;4.25;;
51148;SDS011;37210;50.058;8.688;2023-02-28T09:59:31;4.20;;;3.80;;
51148;SDS011;37210;50.058;8.688;2023-02-28T10:02:19;5.15;;;4.70;;
51148;SDS011;37210;50.058;8.688;2023-02-28T10:05:09;4.97;;;4.60;;
51148;SDS011;37210;50.058;8.688;2023-02-28T10:07:50;4.47;;;4.18;;
51148;SDS011;37210;50.058;8.688;2023-02-28T10:10:33;5.00;;;4.60;;
51148;SDS011;37210;50.058;8.688;2023-02-28T10:13:10;4.57;;;4.13;;
51148;SDS011;37210;50.058;8.688;2023-02-28T10:15:50;4.88;;;4.15;;
51148;SDS011;37210;50.058;8.688;2023-02-28T10:18:24;4.53;;;4.15;;
51148;SDS011;37210;50.058;8.688;2023-02-28T10:21:02;4.90;;;4.30;;
51148;SDS011;37210;50.058;8.688;2023-02-28T10:23:31;5.10;;;4.70;;
51148;SDS011;37210;50.058;8.688;2023-02-28T10:26:05;4.15;;;3.85;;
51148;SDS011;37210;50.058;8.688;2023-02-28T10:28:41;5.53;;;4.88;;
51148;SDS011;37210;50.058;8.688;2023-02-28T10:31:14;4.88;;;4.47;;
51148;SDS011;37210;50.058;8.688;2023-02-28T10:33:45;5.10;;;4.60;;
51148;SDS011;37210;50.058;8.688;2023-02-28T10:36:15;4.70;;;4.30;;
51148;SDS011;37210;50.058;8.688;2023-02-28T10:38:46;4.85;;;4.35;;
51148;SDS011;37210;50.058;8.688;2023-02-28T10:41:17;5.07;;;4.28;;
51148;SDS011;37210;50.058;8.688;2023-02-28T10:44:17;3.65;;;3.38;;
51148;SDS011;37210;50.058;8.688;2023-02-28T10:46:51;4.43;;;3.97;;
51148;SDS011;37210;50.058;8.688;2023-02-28T10:49:20;4.72;;;4.38;;
51148;SDS011;37210;50.058;8.688;2023-02-28T10:51:51;4.55;;;4.13;;
51148;SDS011;37210;50.058;8.688;2023-02-28T10:54:24;4.03;;;3.72;;
51148;SDS011;37210;50.058;8.688;2023-02-28T10:57:15;4.72;;;4.32;;
51148;SDS011;37210;50.058;8.688;2023-02-28T10:59:46;5.38;;;4.88;;
51148;SDS011;37210;50.058;8.688;2023-02-28T11:02:33;4.70;;;4.22;;
51148;SDS011;37210;50.058;8.688;2023-02-28T11:07:52;4.50;;;4.10;;
51148;SDS011;37210;50.058;8.688;2023-02-28T11:10:24;5.07;;;4.68;;
51148;SDS011;37210;50.058;8.688;2023-02-28T11:13:00;5.53;;;5.05;;
51148;SDS011;37210;50.058;8.688;2023-02-28T11:15:30;5.28;;;4.78;;
51148;SDS011;37210;50.058;8.688;2023-02-28T11:18:02;6.22;;;5.72;;
51148;SDS011;37210;50.058;8.688;2023-02-28T11:20:48;4.68;;;4.28;;
51148;SDS011;37210;50.058;8.688;2023-02-28T11:23:18;5.25;;;4.75;;
51148;SDS011;37210;50.058;8.688;2023-02-28T11:25:49;5.07;;;4.68;;
51148;SDS011;37210;50.058;8.688;2023-02-28T11:28:25;5.17;;;4.77;;
51148;SDS011;37210;50.058;8.688;2023-02-28T11:31:01;4.80;;;4.40;;
51148;SDS011;37210;50.058;8.688;2023-02-28T11:33:49;5.28;;;4.70;;
51148;SDS011;37210;50.058;8.688;2023-02-28T11:36:22;5.63;;;5.13;;
51148;SDS011;37210;50.058;8.688;2023-02-28T11:38:52;5.43;;;5.03;;
51148;SDS011;37210;50.058;8.688;2023-02-28T11:41:30;5.10;;;4.57;;
51148;SDS011;37210;50.058;8.688;2023-02-28T11:44:23;5.23;;;4.83;;
51148;SDS011;37210;50.058;8.688;2023-02-28T11:47:10;5.40;;;4.90;;
51148;SDS011;37210;50.058;8.688;2023-02-28T11:49:53;5.80;;;5.30;;
51148;SDS011;37210;50.058;8.688;2023-02-28T11:52:54;4.45;;;4.05;;
51148;SDS011;37210;50.058;8.688;2023-02-28T11:55:30;5.13;;;4.68;;
51148;SDS011;37210;50.058;8.688;2023-02-28T12:01:07;5.25;;;4.75;;
51148;SDS011;37210;50.058;8.688;2023-02-28T12:03:54;5.82;;;5.10;;
51148;SDS011;37210;50.058;8.688;2023-02-28T12:06:40;5.97;;;5.47;;
51148;SDS011;37210;50.058;8.688;2023-02-28T12:09:28;6.38;;;5.72;;
51148;SDS011;37210;50.058;8.688;2023-02-28T12:12:12;5.40;;;4.90;;
51148;SDS011;37210;50.058;8.688;2023-02-28T12:14:56;4.97;;;4.57;;
51148;SDS011;37210;50.058;8.688;2023-02-28T12:17:59;5.57;;;5.07;;
51148;SDS011;37210;50.058;8.688;2023-02-28T12:20:53;5.07;;;4.38;;
51148;SDS011;37210;50.058;8.688;2023-02-28T12:23:42;5.65;;;5.03;;
51148;SDS011;37210;50.058;8.688;2023-02-28T12:26:31;5.97;;;5.43;;
51148;SDS011;37210;50.058;8.688;2023-02-28T12:29:09;5.25;;;4.75;;
51148;SDS011;37210;50.058;8.688;2023-02-28T12:31:46;5.55;;;5.10;;
51148;SDS011;37210;50.058;8.688;2023-02-28T12:34:21;6.20;;;5.60;;
51148;SDS011;37210;50.058;8.688;2023-02-28T12:36:55;5.72;;;5.22;;
51148;SDS011;37210;50.058;8.688;2023-02-28T12:39:36;6.00;;;5.50;;
51148;SDS011;37210;50.058;8.688;2023-02-28T12:42:11;5.07;;;4.60;;
51148;SDS011;37210;50.058;8.688;2023-02-28T12:44:49;5.90;;;5.40;;
51148;SDS011;37210;50.058;8.688;2023-02-28T12:47:27;5.68;;;5.18;;
51148;SDS011;37210;50.058;8.688;2023-02-28T12:49:56;6.32;;;5.80;;
51148;SDS011;37210;50.058;8.688;2023-02-28T12:52:30;7.72;;;5.53;;
51148;SDS011;37210;50.058;8.688;2023-02-28T12:55:17;5.55;;;5.10;;
51148;SDS011;37210;50.058;8.688;2023-02-28T12:57:57;5.93;;;5.43;;
51148;SDS011;37210;50.058;8.688;2023-02-28T13:00:45;6.32;;;5.80;;
51148;SDS011;37210;50.058;8.688;2023-02-28T13:03:52;5.25;;;4.82;;
51148;SDS011;37210;50.058;8.688;2023-02-28T13:06:59;6.68;;;5.95;;
51148;SDS011;37210;50.058;8.688;2023-02-28T13:10:07;6.50;;;5.82;;
51148;SDS011;37210;50.058;8.688;2023-02-28T13:12:38;7.03;;;6.40;;
51148;SDS011;37210;50.058;8.688;2023-02-28T13:15:18;6.57;;;6.00;;
51148;SDS011;37210;50.058;8.688;2023-02-28T13:17:51;5.78;;;5.28;;
51148;SDS011;37210;50.058;8.688;2023-02-28T13:20:23;5.40;;;5.00;;
51148;SDS011;37210;50.058;8.688;2023-02-28T13:22:55;6.15;;;5.65;;
51148;SDS011;37210;50.058;8.688;2023-02-28T13:35:15;5.47;;;4.95;;
51148;SDS011;37210;50.058;8.688;2023-02-28T13:38:15;6.20;;;5.70;;
51148;SDS011;37210;50.058;8.688;2023-02-28T13:44:09;6.13;;;5.53;;
51148;SDS011;37210;50.058;8.688;2023-02-28T13:52:49;6.28;;;5.68;;
51148;SDS011;37210;50.058;8.688;2023-02-28T13:55:34;6.60;;;6.10;;
51148;SDS011;37210;50.058;8.688;2023-02-28T13:58:14;6.70;;;6.10;;
51148;SDS011;37210;50.058;8.688;2023-02-28T14:01:03;7.00;;;6.40;;
51148;SDS011;37210;50.058;8.688;2023-02-28T14:03:49;7.68;;;6.95;;
51148;SDS011;37210;50.058;8.688;2023-02-28T14:06:39;6.15;;;5.65;;
51148;SDS011;37210;50.058;8.688;2023-02-28T14:09:18;6.63;;;6.13;;
51148;SDS011;37210;50.058;8.688;2023-02-28T14:11:51;6.65;;;6.13;;
51148;SDS011;37210;50.058;8.688;2023-02-28T14:17:22;6.93;;;6.05;;
51148;SDS011;37210;50.058;8.688;2023-02-28T14:19:54;6.75;;;6.22;;
51148;SDS011;37210;50.058;8.688;2023-02-28T14:22:41;6.72;;;6.15;;
51148;SDS011;37210;50.058;8.688;2023-02-28T14:25:25;6.85;;;6.25;;
51148;SDS011;37210;50.058;8.688;2023-02-28T14:28:06;7.07;;;6.47;;
51148;SDS011;37210;50.058;8.688;2023-02-28T14:30:49;6.97;;;6.28;;
51148;SDS011;37210;50.058;8.688;2023-02-28T14:33:31;6.40;;;5.80;;
51148;SDS011;37210;50.058;8.688;2023-02-28T14:36:20;6.35;;;5.75;;
51148;SDS011;37210;50.058;8.688;2023-02-28T14:38:54;6.47;;;5.88;;
51148;SDS011;37210;50.058;8.688;2023-02-28T14:41:28;7.35;;;6.57;;
51148;SDS011;37210;50.058;8.688;2023-02-28T14:44:01;6.03;;;5.53;;
51148;SDS011;37210;50.058;8.688;2023-02-28T14:46:39;7.28;;;6.57;;
51148;SDS011;37210;50.058;8.688;2023-02-28T14:49:13;6.68;;;6.13;;
51148;SDS011;37210;50.058;8.688;2023-02-28T14:51:48;7.30;;;6.68;;
51148;SDS011;37210;50.058;8.688;2023-02-28T14:54:28;7.28;;;6.57;;
51148;SDS011;37210;50.058;8.688;2023-02-28T14:56:56;5.72;;;5.32;;
51148;SDS011;37210;50.058;8.688;2023-02-28T14:59:24;6.72;;;6.13;;
51148;SDS011;37210;50.058;8.688;2023-02-28T15:04:52;6.68;;;6.07;;
51148;SDS011;37210;50.058;8.688;2023-02-28T15:07:26;6.83;;;6.23;;
51148;SDS011;37210;50.058;8.688;2023-02-28T15:10:08;6.55;;;6.03;;
51148;SDS011;37210;50.058;8.688;2023-02-28T15:12:48;6.45;;;5.95;;
51148;SDS011;37210;50.058;8.688;2023-02-28T15:15:22;7.80;;;7.03;;
51148;SDS011;37210;50.058;8.688;2023-02-28T15:18:00;7.07;;;6.47;;
51148;SDS011;37210;50.058;8.688;2023-02-28T15:20:32;7.10;;;6.50;;
51148;SDS011;37210;50.058;8.688;2023-02-28T15:23:03;7.18;;;6.47;;
51148;SDS011;37210;50.058;8.688;2023-02-28T15:25:31;6.63;;;5.93;;
51148;SDS011;37210;50.058;8.688;2023-02-28T15:27:58;6.85;;;6.15;;
51148;SDS011;37210;50.058;8.688;2023-02-28T15:30:27;8.70;;;7.90;;
51148;SDS011;37210;50.058;8.688;2023-02-28T15:33:02;7.65;;;6.95;;
51148;SDS011;37210;50.058;8.688;2023-02-28T15:35:34;6.45;;;5.82;;
51148;SDS011;37210;50.058;8.688;2023-02-28T15:38:03;7.35;;;6.65;;
51148;SDS011;37210;50.058;8.688;2023-02-28T15:40:44;6.68;;;6.15;;
51148;SDS011;37210;50.058;8.688;2023-02-28T15:43:22;7.20;;;6.55;;
51148;SDS011;37210;50.058;8.688;2023-02-28T15:45:55;6.93;;;6.22;;
51148;SDS011;37210;50.058;8.688;2023-02-28T15:48:27;6.50;;;6.00;;
51148;SDS011;37210;50.058;8.688;2023-02-28T15:50:58;7.10;;;6.50;;
51148;SDS011;37210;50.058;8.688;2023-02-28T15:53:35;7.23;;;6.63;;
51148;SDS011;37210;50.058;8.688;2023-02-28T15:56:19;6.85;;;6.25;;
51148;SDS011;37210;50.058;8.688;2023-02-28T15:58:53;6.55;;;6.00;;
51148;SDS011;37210;50.058;8.688;2023-02-28T16:01:24;7.50;;;6.90;;